createdAt,value
2017-07-01T00:04:03.599Z,81.15
2017-07-01T00:24:04.042Z,81.94
2017-07-01T00:44:04.557Z,82.34
2017-07-01T01:04:05.085Z,80.40
2017-07-01T01:24:05.614Z,72.76
2017-07-01T01:44:06.170Z,21.89
2017-07-01T02:04:06.773Z,79.31
2017-07-01T02:24:07.049Z,99.86
2017-07-01T02:44:07.637Z,56.33
2017-07-01T03:03:23.643Z,46.93
2017-07-01T03:23:24.022Z,83.46
2017-07-01T03:43:24.585Z,100.00
2017-07-01T04:03:25.059Z,100.00
2017-07-01T04:23:25.620Z,100.00
2017-07-01T04:43:26.210Z,100.00
2017-07-01T05:03:26.583Z,100.00
2017-07-01T05:23:27.171Z,100.00
2017-07-01T05:43:27.723Z,100.00
2017-07-01T06:03:28.227Z,100.00
2017-07-01T06:23:28.733Z,100.00
2017-07-01T06:43:29.274Z,100.00
2017-07-01T07:03:29.749Z,100.00
2017-07-01T07:23:30.248Z,100.00
2017-07-01T07:43:30.797Z,100.00
2017-07-01T08:03:31.409Z,100.00
2017-07-01T08:23:31.964Z,100.00
2017-07-01T08:43:32.486Z,100.00
2017-07-01T09:03:33.059Z,100.00
2017-07-01T09:23:33.582Z,100.00
2017-07-01T09:43:33.969Z,100.00
2017-07-01T10:03:34.464Z,100.00
2017-07-01T10:33:35.145Z,100.00
2017-07-01T10:53:35.645Z,100.00
2017-07-01T11:13:36.067Z,100.00
2017-07-01T11:33:36.742Z,100.00
2017-07-01T11:53:37.261Z,100.00
2017-07-01T12:13:37.635Z,100.00
2017-07-01T12:33:38.080Z,100.00
2017-07-01T12:53:38.601Z,100.00
2017-07-01T13:13:39.080Z,100.00
2017-07-01T13:33:39.463Z,100.00
2017-07-01T13:53:39.974Z,100.00
2017-07-01T14:13:40.555Z,100.00
2017-07-01T14:33:40.974Z,100.00
2017-07-01T14:53:41.495Z,100.00
2017-07-01T15:13:42.020Z,100.00
2017-07-01T15:33:42.427Z,100.00
2017-07-01T15:53:42.932Z,99.95
2017-07-01T16:13:43.429Z,64.84
2017-07-01T16:33:43.991Z,36.47
2017-07-01T16:58:44.570Z,52.03
2017-07-01T17:18:45.130Z,29.53
2017-07-01T17:38:45.606Z,3.62
2017-07-01T17:58:46.184Z,0.00
2017-07-01T18:18:46.632Z,0.14
2017-07-01T18:38:47.181Z,21.55
2017-07-01T18:58:47.716Z,41.55
2017-07-01T19:18:48.191Z,0.00
2017-07-01T19:38:48.694Z,4.01
2017-07-01T19:58:49.190Z,62.30
2017-07-01T20:18:50.035Z,65.72
2017-07-01T20:39:34.796Z,46.06
2017-07-01T20:59:35.155Z,100.00
2017-07-01T21:19:35.631Z,99.44
2017-07-01T21:39:36.052Z,94.67
2017-07-01T21:59:36.494Z,99.28
2017-07-01T22:19:37.020Z,98.72
2017-07-01T22:39:37.545Z,76.37
2017-07-01T22:59:37.995Z,75.32
2017-07-01T23:19:38.447Z,78.69
2017-07-01T23:39:38.960Z,78.90
2017-07-01T23:59:39.412Z,81.53
